sensor_id;sensor_type;location;lat;lon;timestamp;temperature;humidity
40960;DHT22;27842;52.272;8.052;2023-03-07T00:01:01;3.90;99.90
40960;DHT22;27842;52.272;8.052;2023-03-07T00:03:27;3.80;99.90
40960;DHT22;27842;52.272;8.052;2023-03-07T00:06:04;3.80;99.90
40960;DHT22;27842;52.272;8.052;2023-03-07T00:08:31;3.80;99.90
40960;DHT22;27842;52.272;8.052;2023-03-07T00:11:03;3.90;99.90
40960;DHT22;27842;52.272;8.052;2023-03-07T00:13:30;3.80;99.90
40960;DHT22;27842;52.272;8.052;2023-03-07T00:16:03;3.80;99.90
40960;DHT22;27842;52.272;8.052;2023-03-07T00:18:30;3.80;99.90
40960;DHT22;27842;52.272;8.052;2023-03-07T00:21:00;3.80;99.90
40960;DHT22;27842;52.272;8.052;2023-03-07T00:23:27;3.80;99.90
40960;DHT22;27842;52.272;8.052;2023-03-07T00:26:06;3.80;99.90
40960;DHT22;27842;52.272;8.052;2023-03-07T00:28:33;3.80;99.90
40960;DHT22;27842;52.272;8.052;2023-03-07T00:31:00;3.80;99.90
40960;DHT22;27842;52.272;8.052;2023-03-07T00:33:25;3.90;99.90
40960;DHT22;27842;52.272;8.052;2023-03-07T00:35:59;3.90;99.90
40960;DHT22;27842;52.272;8.052;2023-03-07T00:38:26;3.90;99.90
40960;DHT22;27842;52.272;8.052;2023-03-07T00:43:22;3.90;99.90
40960;DHT22;27842;52.272;8.052;2023-03-07T00:45:48;3.90;99.90
40960;DHT22;27842;52.272;8.052;2023-03-07T00:48:13;3.90;99.90
40960;DHT22;27842;52.272;8.052;2023-03-07T00:50:39;3.80;99.90
40960;DHT22;27842;52.272;8.052;2023-03-07T00:53:04;3.80;99.90
40960;DHT22;27842;52.272;8.052;2023-03-07T00:55:30;3.80;99.90
40960;DHT22;27842;52.272;8.052;2023-03-07T00:57:55;3.80;99.90
40960;DHT22;27842;52.272;8.052;2023-03-07T01:00:21;3.80;99.90
40960;DHT22;27842;52.272;8.052;2023-03-07T01:02:47;3.90;99.90
40960;DHT22;27842;52.272;8.052;2023-03-07T01:05:12;3.90;99.90
40960;DHT22;27842;52.272;8.052;2023-03-07T01:07:38;3.90;99.90
40960;DHT22;27842;52.272;8.052;2023-03-07T01:10:03;3.80;99.90
40960;DHT22;27842;52.272;8.052;2023-03-07T01:12:29;3.80;99.90
40960;DHT22;27842;52.272;8.052;2023-03-07T01:14:55;3.90;99.90
40960;DHT22;27842;52.272;8.052;2023-03-07T01:17:20;3.90;99.90
40960;DHT22;27842;52.272;8.052;2023-03-07T01:19:46;3.90;99.90
40960;DHT22;27842;52.272;8.052;2023-03-07T01:22:11;3.90;99.90
40960;DHT22;27842;52.272;8.052;2023-03-07T01:24:38;3.90;99.90
40960;DHT22;27842;52.272;8.052;2023-03-07T01:27:04;3.90;99.90
40960;DHT22;27842;52.272;8.052;2023-03-07T01:29:29;4.00;99.90
40960;DHT22;27842;52.272;8.052;2023-03-07T01:31:55;4.00;99.90
40960;DHT22;27842;52.272;8.052;2023-03-07T01:34:20;4.00;99.90
40960;DHT22;27842;52.272;8.052;2023-03-07T01:36:47;4.00;99.90
40960;DHT22;27842;52.272;8.052;2023-03-07T01:39:14;4.10;99.90
40960;DHT22;27842;52.272;8.052;2023-03-07T01:41:41;4.10;99.90
40960;DHT22;27842;52.272;8.052;2023-03-07T01:44:17;4.10;99.90
40960;DHT22;27842;52.272;8.052;2023-03-07T01:46:49;4.20;99.90
40960;DHT22;27842;52.272;8.052;2023-03-07T01:49:36;4.20;99.90
40960;DHT22;27842;52.272;8.052;2023-03-07T01:52:26;4.20;99.90
40960;DHT22;27842;52.272;8.052;2023-03-07T01:55:04;4.30;99.90
40960;DHT22;27842;52.272;8.052;2023-03-07T01:57:35;4.30;99.90
40960;DHT22;27842;52.272;8.052;2023-03-07T02:00:07;4.30;99.90
40960;DHT22;27842;52.272;8.052;2023-03-07T02:02:38;4.40;99.90
40960;DHT22;27842;52.272;8.052;2023-03-07T02:05:26;4.40;99.90
40960;DHT22;27842;52.272;8.052;2023-03-07T02:07:56;4.40;99.90
40960;DHT22;27842;52.272;8.052;2023-03-07T02:10:24;4.40;99.90
40960;DHT22;27842;52.272;8.052;2023-03-07T02:12:52;4.40;99.90
40960;DHT22;27842;52.272;8.052;2023-03-07T02:15:18;4.40;99.90
40960;DHT22;27842;52.272;8.052;2023-03-07T02:17:44;4.40;99.90
40960;DHT22;27842;52.272;8.052;2023-03-07T02:23:06;4.40;99.90
40960;DHT22;27842;52.272;8.052;2023-03-07T02:25:47;4.40;99.90
40960;DHT22;27842;52.272;8.052;2023-03-07T02:28:16;4.40;99.90
40960;DHT22;27842;52.272;8.052;2023-03-07T02:33:19;4.50;99.90
40960;DHT22;27842;52.272;8.052;2023-03-07T02:35:47;4.50;99.90
40960;DHT22;27842;52.272;8.052;2023-03-07T02:38:13;4.60;99.90
40960;DHT22;27842;52.272;8.052;2023-03-07T02:40:39;4.60;99.90
40960;DHT22;27842;52.272;8.052;2023-03-07T02:43:05;4.60;99.90
40960;DHT22;27842;52.272;8.052;2023-03-07T02:45:33;4.60;99.90
40960;DHT22;27842;52.272;8.052;2023-03-07T02:47:59;4.60;99.90
40960;DHT22;27842;52.272;8.052;2023-03-07T02:50:24;4.60;99.90
40960;DHT22;27842;52.272;8.052;2023-03-07T02:52:50;4.70;99.90
40960;DHT22;27842;52.272;8.052;2023-03-07T02:55:16;4.60;99.90
40960;DHT22;27842;52.272;8.052;2023-03-07T02:57:41;4.60;99.90
40960;DHT22;27842;52.272;8.052;2023-03-07T03:00:07;4.60;99.90
40960;DHT22;27842;52.272;8.052;2023-03-07T03:02:34;4.60;99.90
40960;DHT22;27842;52.272;8.052;2023-03-07T03:05:00;4.60;99.90
40960;DHT22;27842;52.272;8.052;2023-03-07T03:07:26;4.60;99.90
40960;DHT22;27842;52.272;8.052;2023-03-07T03:09:51;4.60;99.90
40960;DHT22;27842;52.272;8.052;2023-03-07T03:12:17;4.60;99.90
40960;DHT22;27842;52.272;8.052;2023-03-07T03:14:42;4.60;99.90
40960;DHT22;27842;52.272;8.052;2023-03-07T03:17:08;4.60;99.90
40960;DHT22;27842;52.272;8.052;2023-03-07T03:19:34;4.60;99.90
40960;DHT22;27842;52.272;8.052;2023-03-07T03:21:59;4.60;99.90
40960;DHT22;27842;52.272;8.052;2023-03-07T03:24:25;4.60;99.90
40960;DHT22;27842;52.272;8.052;2023-03-07T03:26:50;4.60;99.90
40960;DHT22;27842;52.272;8.052;2023-03-07T03:29:16;4.50;99.90
40960;DHT22;27842;52.272;8.052;2023-03-07T03:31:41;4.60;99.90
40960;DHT22;27842;52.272;8.052;2023-03-07T03:34:07;4.50;99.90
40960;DHT22;27842;52.272;8.052;2023-03-07T03:36:33;4.50;99.90
40960;DHT22;27842;52.272;8.052;2023-03-07T03:38:59;4.50;99.90
40960;DHT22;27842;52.272;8.052;2023-03-07T03:41:25;4.50;99.90
40960;DHT22;27842;52.272;8.052;2023-03-07T03:43:51;4.50;99.90
40960;DHT22;27842;52.272;8.052;2023-03-07T03:46:17;4.50;99.90
40960;DHT22;27842;52.272;8.052;2023-03-07T03:48:49;4.50;99.90
40960;DHT22;27842;52.272;8.052;2023-03-07T03:51:14;4.50;99.90
40960;DHT22;27842;52.272;8.052;2023-03-07T03:53:40;4.40;99.90
40960;DHT22;27842;52.272;8.052;2023-03-07T03:56:08;4.40;99.90
40960;DHT22;27842;52.272;8.052;2023-03-07T03:58:34;4.40;99.90
40960;DHT22;27842;52.272;8.052;2023-03-07T04:01:01;4.40;99.90
40960;DHT22;27842;52.272;8.052;2023-03-07T04:03:34;4.30;99.90
40960;DHT22;27842;52.272;8.052;2023-03-07T04:06:08;4.30;99.90
40960;DHT22;27842;52.272;8.052;2023-03-07T04:08:35;4.30;99.90
40960;DHT22;27842;52.272;8.052;2023-03-07T04:11:01;4.30;99.90
40960;DHT22;27842;52.272;8.052;2023-03-07T04:13:26;4.20;99.90
40960;DHT22;27842;52.272;8.052;2023-03-07T04:15:52;4.20;99.90
40960;DHT22;27842;52.272;8.052;2023-03-07T04:18:21;4.20;99.90
40960;DHT22;27842;52.272;8.052;2023-03-07T04:20:48;4.20;99.90
40960;DHT22;27842;52.272;8.052;2023-03-07T04:23:17;4.20;99.90
40960;DHT22;27842;52.272;8.052;2023-03-07T04:25:53;4.20;99.90
40960;DHT22;27842;52.272;8.052;2023-03-07T04:28:20;4.20;99.90
40960;DHT22;27842;52.272;8.052;2023-03-07T04:30:46;4.20;99.90
40960;DHT22;27842;52.272;8.052;2023-03-07T04:33:14;4.20;99.90
40960;DHT22;27842;52.272;8.052;2023-03-07T04:35:40;4.30;99.90
40960;DHT22;27842;52.272;8.052;2023-03-07T04:38:05;4.20;99.90
40960;DHT22;27842;52.272;8.052;2023-03-07T04:40:32;4.20;99.90
40960;DHT22;27842;52.272;8.052;2023-03-07T04:42:58;4.20;99.90
40960;DHT22;27842;52.272;8.052;2023-03-07T04:45:23;4.20;99.90
40960;DHT22;27842;52.272;8.052;2023-03-07T04:47:49;4.20;99.90
40960;DHT22;27842;52.272;8.052;2023-03-07T04:50:16;4.20;99.90
40960;DHT22;27842;52.272;8.052;2023-03-07T04:52:42;4.30;99.90
40960;DHT22;27842;52.272;8.052;2023-03-07T04:55:08;4.30;99.90
40960;DHT22;27842;52.272;8.052;2023-03-07T04:57:34;4.30;99.90
40960;DHT22;27842;52.272;8.052;2023-03-07T05:00:00;4.30;99.90
40960;DHT22;27842;52.272;8.052;2023-03-07T05:02:26;4.30;99.90
40960;DHT22;27842;52.272;8.052;2023-03-07T05:04:51;4.30;99.90
40960;DHT22;27842;52.272;8.052;2023-03-07T05:07:17;4.20;99.90
40960;DHT22;27842;52.272;8.052;2023-03-07T05:09:42;4.30;99.90
40960;DHT22;27842;52.272;8.052;2023-03-07T05:12:08;4.30;99.90
40960;DHT22;27842;52.272;8.052;2023-03-07T05:14:34;4.30;99.90
40960;DHT22;27842;52.272;8.052;2023-03-07T05:16:59;4.30;99.90
40960;DHT22;27842;52.272;8.052;2023-03-07T05:19:25;4.30;99.90
40960;DHT22;27842;52.272;8.052;2023-03-07T05:21:51;4.30;99.90
40960;DHT22;27842;52.272;8.052;2023-03-07T05:24:17;4.40;99.90
40960;DHT22;27842;52.272;8.052;2023-03-07T05:26:43;4.40;99.90
40960;DHT22;27842;52.272;8.052;2023-03-07T05:29:08;4.40;99.90
40960;DHT22;27842;52.272;8.052;2023-03-07T05:31:34;4.40;99.90
40960;DHT22;27842;52.272;8.052;2023-03-07T05:34:00;4.40;99.90
40960;DHT22;27842;52.272;8.052;2023-03-07T05:36:26;4.40;99.90
40960;DHT22;27842;52.272;8.052;2023-03-07T05:38:52;4.40;99.90
40960;DHT22;27842;52.272;8.052;2023-03-07T05:41:20;4.40;99.90
40960;DHT22;27842;52.272;8.052;2023-03-07T05:43:46;4.40;99.90
40960;DHT22;27842;52.272;8.052;2023-03-07T05:46:12;4.40;99.90
40960;DHT22;27842;52.272;8.052;2023-03-07T05:48:37;4.40;99.90
40960;DHT22;27842;52.272;8.052;2023-03-07T05:51:03;4.40;99.90
40960;DHT22;27842;52.272;8.052;2023-03-07T05:53:28;4.40;99.90
40960;DHT22;27842;52.272;8.052;2023-03-07T05:55:54;4.50;99.90
40960;DHT22;27842;52.272;8.052;2023-03-07T05:58:19;4.50;99.90
40960;DHT22;27842;52.272;8.052;2023-03-07T06:00:45;4.50;99.90
40960;DHT22;27842;52.272;8.052;2023-03-07T06:03:11;4.50;99.90
40960;DHT22;27842;52.272;8.052;2023-03-07T06:05:36;4.40;99.90
40960;DHT22;27842;52.272;8.052;2023-03-07T06:08:03;4.40;99.90
40960;DHT22;27842;52.272;8.052;2023-03-07T06:10:29;4.40;99.90
40960;DHT22;27842;52.272;8.052;2023-03-07T06:12:55;4.40;99.90
40960;DHT22;27842;52.272;8.052;2023-03-07T06:15:21;4.40;99.90
40960;DHT22;27842;52.272;8.052;2023-03-07T06:17:48;4.30;99.90
40960;DHT22;27842;52.272;8.052;2023-03-07T06:20:17;4.30;99.90
40960;DHT22;27842;52.272;8.052;2023-03-07T06:23:30;4.30;99.90
40960;DHT22;27842;52.272;8.052;2023-03-07T06:26:39;4.30;99.90
40960;DHT22;27842;52.272;8.052;2023-03-07T06:29:05;4.20;99.90
40960;DHT22;27842;52.272;8.052;2023-03-07T06:31:31;4.20;99.90
40960;DHT22;27842;52.272;8.052;2023-03-07T06:33:56;4.20;99.90
40960;DHT22;27842;52.272;8.052;2023-03-07T06:36:22;4.20;99.90
40960;DHT22;27842;52.272;8.052;2023-03-07T06:38:47;4.20;99.90
40960;DHT22;27842;52.272;8.052;2023-03-07T06:41:13;4.20;99.90
40960;DHT22;27842;52.272;8.052;2023-03-07T06:43:39;4.20;99.90
40960;DHT22;27842;52.272;8.052;2023-03-07T06:46:04;4.20;99.90
40960;DHT22;27842;52.272;8.052;2023-03-07T06:48:30;4.10;99.90
40960;DHT22;27842;52.272;8.052;2023-03-07T06:50:59;4.10;99.90
40960;DHT22;27842;52.272;8.052;2023-03-07T06:53:25;4.10;99.90
40960;DHT22;27842;52.272;8.052;2023-03-07T06:55:51;4.00;99.90
40960;DHT22;27842;52.272;8.052;2023-03-07T06:58:17;4.00;99.90
40960;DHT22;27842;52.272;8.052;2023-03-07T07:00:43;4.00;99.90
40960;DHT22;27842;52.272;8.052;2023-03-07T07:03:13;3.90;99.90
40960;DHT22;27842;52.272;8.052;2023-03-07T07:05:39;3.90;99.90
40960;DHT22;27842;52.272;8.052;2023-03-07T07:08:05;3.90;99.90
40960;DHT22;27842;52.272;8.052;2023-03-07T07:10:30;3.90;99.90
40960;DHT22;27842;52.272;8.052;2023-03-07T07:12:56;3.80;99.90
40960;DHT22;27842;52.272;8.052;2023-03-07T07:15:25;3.80;99.90
40960;DHT22;27842;52.272;8.052;2023-03-07T07:17:51;3.80;99.90
40960;DHT22;27842;52.272;8.052;2023-03-07T07:20:17;3.80;99.90
40960;DHT22;27842;52.272;8.052;2023-03-07T07:22:43;3.80;99.90
40960;DHT22;27842;52.272;8.052;2023-03-07T07:25:09;3.70;99.90
40960;DHT22;27842;52.272;8.052;2023-03-07T07:27:35;3.70;99.90
40960;DHT22;27842;52.272;8.052;2023-03-07T07:30:02;3.60;99.90
40960;DHT22;27842;52.272;8.052;2023-03-07T07:32:28;3.50;99.90
40960;DHT22;27842;52.272;8.052;2023-03-07T07:34:53;3.50;99.90
40960;DHT22;27842;52.272;8.052;2023-03-07T07:37:19;3.40;99.90
40960;DHT22;27842;52.272;8.052;2023-03-07T07:39:45;3.40;99.90
40960;DHT22;27842;52.272;8.052;2023-03-07T07:42:11;3.30;99.90
40960;DHT22;27842;52.272;8.052;2023-03-07T07:44:37;3.30;99.90
40960;DHT22;27842;52.272;8.052;2023-03-07T07:47:03;3.30;99.90
40960;DHT22;27842;52.272;8.052;2023-03-07T07:49:28;3.20;99.90
40960;DHT22;27842;52.272;8.052;2023-03-07T07:51:54;3.20;99.90
40960;DHT22;27842;52.272;8.052;2023-03-07T07:54:20;3.20;99.90
40960;DHT22;27842;52.272;8.052;2023-03-07T07:56:45;3.20;99.90
40960;DHT22;27842;52.272;8.052;2023-03-07T07:59:11;3.20;99.90
40960;DHT22;27842;52.272;8.052;2023-03-07T08:01:37;3.20;99.90
40960;DHT22;27842;52.272;8.052;2023-03-07T08:04:02;3.20;99.90
40960;DHT22;27842;52.272;8.052;2023-03-07T08:06:28;3.20;99.90
40960;DHT22;27842;52.272;8.052;2023-03-07T08:08:54;3.20;99.90
40960;DHT22;27842;52.272;8.052;2023-03-07T08:11:21;3.10;99.90
40960;DHT22;27842;52.272;8.052;2023-03-07T08:13:47;3.10;99.90
40960;DHT22;27842;52.272;8.052;2023-03-07T08:16:17;3.10;99.90
40960;DHT22;27842;52.272;8.052;2023-03-07T08:18:54;3.10;99.90
40960;DHT22;27842;52.272;8.052;2023-03-07T08:21:21;3.10;99.90
40960;DHT22;27842;52.272;8.052;2023-03-07T08:23:46;3.10;99.90
40960;DHT22;27842;52.272;8.052;2023-03-07T08:26:12;3.10;99.90
40960;DHT22;27842;52.272;8.052;2023-03-07T08:28:39;3.10;99.90
40960;DHT22;27842;52.272;8.052;2023-03-07T08:31:12;3.10;99.90
40960;DHT22;27842;52.272;8.052;2023-03-07T08:33:38;3.10;99.90
40960;DHT22;27842;52.272;8.052;2023-03-07T08:36:04;3.10;99.90
40960;DHT22;27842;52.272;8.052;2023-03-07T08:38:31;3.10;99.90
40960;DHT22;27842;52.272;8.052;2023-03-07T08:41:04;3.20;99.90
40960;DHT22;27842;52.272;8.052;2023-03-07T08:43:31;3.20;99.90
40960;DHT22;27842;52.272;8.052;2023-03-07T08:45:57;3.20;99.90
40960;DHT22;27842;52.272;8.052;2023-03-07T08:48:24;3.20;99.90
40960;DHT22;27842;52.272;8.052;2023-03-07T08:50:50;3.20;99.90
40960;DHT22;27842;52.272;8.052;2023-03-07T08:53:16;3.10;99.90
40960;DHT22;27842;52.272;8.052;2023-03-07T08:55:42;3.10;99.90
40960;DHT22;27842;52.272;8.052;2023-03-07T08:58:08;3.10;99.90
40960;DHT22;27842;52.272;8.052;2023-03-07T09:00:35;3.10;99.90
40960;DHT22;27842;52.272;8.052;2023-03-07T09:03:01;3.00;99.90
40960;DHT22;27842;52.272;8.052;2023-03-07T09:05:29;3.00;99.90
40960;DHT22;27842;52.272;8.052;2023-03-07T09:07:55;3.00;99.90
40960;DHT22;27842;52.272;8.052;2023-03-07T09:10:21;3.00;99.90
40960;DHT22;27842;52.272;8.052;2023-03-07T09:12:48;3.00;99.90
40960;DHT22;27842;52.272;8.052;2023-03-07T09:15:16;3.00;99.90
40960;DHT22;27842;52.272;8.052;2023-03-07T09:17:41;3.00;99.90
40960;DHT22;27842;52.272;8.052;2023-03-07T09:20:08;3.00;99.90
40960;DHT22;27842;52.272;8.052;2023-03-07T09:22:34;3.00;99.90
40960;DHT22;27842;52.272;8.052;2023-03-07T09:25:00;3.00;99.90
40960;DHT22;27842;52.272;8.052;2023-03-07T09:27:25;2.90;99.90
40960;DHT22;27842;52.272;8.052;2023-03-07T09:29:51;3.00;99.90
40960;DHT22;27842;52.272;8.052;2023-03-07T09:32:16;3.00;99.90
40960;DHT22;27842;52.272;8.052;2023-03-07T09:34:42;3.00;99.90
40960;DHT22;27842;52.272;8.052;2023-03-07T09:37:09;3.00;99.90
40960;DHT22;27842;52.272;8.052;2023-03-07T09:39:35;3.00;99.90
40960;DHT22;27842;52.272;8.052;2023-03-07T09:42:26;3.00;99.90
40960;DHT22;27842;52.272;8.052;2023-03-07T09:50:38;3.10;99.90
40960;DHT22;27842;52.272;8.052;2023-03-07T09:53:10;3.00;99.90
40960;DHT22;27842;52.272;8.052;2023-03-07T09:55:37;3.00;99.90
40960;DHT22;27842;52.272;8.052;2023-03-07T09:58:13;3.00;99.90
40960;DHT22;27842;52.272;8.052;2023-03-07T10:00:41;3.10;99.90
40960;DHT22;27842;52.272;8.052;2023-03-07T10:05:46;3.10;99.90
40960;DHT22;27842;52.272;8.052;2023-03-07T10:08:17;3.10;99.90
40960;DHT22;27842;52.272;8.052;2023-03-07T10:16:39;3.20;99.90
40960;DHT22;27842;52.272;8.052;2023-03-07T10:22:32;3.30;99.90
40960;DHT22;27842;52.272;8.052;2023-03-07T10:27:35;3.40;99.90
40960;DHT22;27842;52.272;8.052;2023-03-07T10:30:09;3.40;99.90
40960;DHT22;27842;52.272;8.052;2023-03-07T10:32:40;3.40;99.90
40960;DHT22;27842;52.272;8.052;2023-03-07T10:43:31;3.40;99.90
40960;DHT22;27842;52.272;8.052;2023-03-07T10:46:13;3.40;99.90
40960;DHT22;27842;52.272;8.052;2023-03-07T10:48:43;3.40;99.90
40960;DHT22;27842;52.272;8.052;2023-03-07T10:51:32;3.40;99.90
40960;DHT22;27842;52.272;8.052;2023-03-07T10:54:01;3.50;99.90
40960;DHT22;27842;52.272;8.052;2023-03-07T10:56:28;3.40;99.90
40960;DHT22;27842;52.272;8.052;2023-03-07T10:58:58;3.50;99.90
40960;DHT22;27842;52.272;8.052;2023-03-07T11:01:24;3.60;99.90
40960;DHT22;27842;52.272;8.052;2023-03-07T11:04:19;3.60;99.90
40960;DHT22;27842;52.272;8.052;2023-03-07T11:06:59;3.60;99.90
40960;DHT22;27842;52.272;8.052;2023-03-07T11:09:33;3.60;99.90
40960;DHT22;27842;52.272;8.052;2023-03-07T11:12:20;3.60;99.90
40960;DHT22;27842;52.272;8.052;2023-03-07T11:14:50;3.70;99.90
40960;DHT22;27842;52.272;8.052;2023-03-07T11:17:21;3.70;99.90
40960;DHT22;27842;52.272;8.052;2023-03-07T11:19:54;3.60;99.90
40960;DHT22;27842;52.272;8.052;2023-03-07T11:22:46;3.70;99.90
40960;DHT22;27842;52.272;8.052;2023-03-07T11:25:15;3.70;99.90
40960;DHT22;27842;52.272;8.052;2023-03-07T11:27:56;3.70;99.90
40960;DHT22;27842;52.272;8.052;2023-03-07T11:35:49;3.70;99.90
40960;DHT22;27842;52.272;8.052;2023-03-07T11:38:33;3.80;99.90
40960;DHT22;27842;52.272;8.052;2023-03-07T11:41:10;3.90;99.90
40960;DHT22;27842;52.272;8.052;2023-03-07T11:49:45;3.90;99.90
40960;DHT22;27842;52.272;8.052;2023-03-07T11:52:30;3.90;99.90
40960;DHT22;27842;52.272;8.052;2023-03-07T11:55:19;4.00;99.90
40960;DHT22;27842;52.272;8.052;2023-03-07T12:08:53;4.10;99.90
40960;DHT22;27842;52.272;8.052;2023-03-07T12:19:56;4.20;99.90
40960;DHT22;27842;52.272;8.052;2023-03-07T12:27:31;4.30;99.90
40960;DHT22;27842;52.272;8.052;2023-03-07T12:30:05;4.20;99.90
40960;DHT22;27842;52.272;8.052;2023-03-07T12:32:35;4.30;99.90
40960;DHT22;27842;52.272;8.052;2023-03-07T12:35:21;4.20;99.90
40960;DHT22;27842;52.272;8.052;2023-03-07T12:38:06;4.20;99.90
40960;DHT22;27842;52.272;8.052;2023-03-07T12:40:39;4.20;99.90
40960;DHT22;27842;52.272;8.052;2023-03-07T12:43:21;4.20;99.90
40960;DHT22;27842;52.272;8.052;2023-03-07T12:45:56;4.30;99.90
40960;DHT22;27842;52.272;8.052;2023-03-07T12:48:45;4.30;99.90
40960;DHT22;27842;52.272;8.052;2023-03-07T12:51:38;4.30;99.90
40960;DHT22;27842;52.272;8.052;2023-03-07T12:54:28;4.30;99.90
40960;DHT22;27842;52.272;8.052;2023-03-07T12:59:40;4.40;99.90
40960;DHT22;27842;52.272;8.052;2023-03-07T13:02:15;4.40;99.90
40960;DHT22;27842;52.272;8.052;2023-03-07T13:04:43;4.40;99.90
40960;DHT22;27842;52.272;8.052;2023-03-07T13:07:12;4.40;99.90
40960;DHT22;27842;52.272;8.052;2023-03-07T13:09:41;4.40;99.90
40960;DHT22;27842;52.272;8.052;2023-03-07T13:14:52;4.40;99.90
40960;DHT22;27842;52.272;8.052;2023-03-07T13:27:56;4.20;99.90
40960;DHT22;27842;52.272;8.052;2023-03-07T13:30:27;4.20;99.90
40960;DHT22;27842;52.272;8.052;2023-03-07T13:32:56;4.20;99.90
40960;DHT22;27842;52.272;8.052;2023-03-07T13:38:01;4.10;99.90
40960;DHT22;27842;52.272;8.052;2023-03-07T13:58:33;4.10;99.90
40960;DHT22;27842;52.272;8.052;2023-03-07T14:01:11;4.20;99.90
40960;DHT22;27842;52.272;8.052;2023-03-07T14:03:53;4.20;99.90
40960;DHT22;27842;52.272;8.052;2023-03-07T14:06:22;4.20;99.90
40960;DHT22;27842;52.272;8.052;2023-03-07T14:08:50;4.20;99.90
40960;DHT22;27842;52.272;8.052;2023-03-07T14:14:28;4.20;99.90
40960;DHT22;27842;52.272;8.052;2023-03-07T14:17:25;4.10;99.90
40960;DHT22;27842;52.272;8.052;2023-03-07T14:23:07;4.10;99.90
40960;DHT22;27842;52.272;8.052;2023-03-07T14:25:37;4.10;99.90
40960;DHT22;27842;52.272;8.052;2023-03-07T14:28:33;4.10;99.90
40960;DHT22;27842;52.272;8.052;2023-03-07T14:31:02;4.10;99.90
40960;DHT22;27842;52.272;8.052;2023-03-07T14:33:33;4.10;99.90
40960;DHT22;27842;52.272;8.052;2023-03-07T14:36:00;4.00;99.90
40960;DHT22;27842;52.272;8.052;2023-03-07T14:38:26;4.00;99.90
40960;DHT22;27842;52.272;8.052;2023-03-07T14:43:50;3.90;99.90
40960;DHT22;27842;52.272;8.052;2023-03-07T14:49:26;4.00;99.90
40960;DHT22;27842;52.272;8.052;2023-03-07T14:51:56;4.00;99.90
40960;DHT22;27842;52.272;8.052;2023-03-07T14:54:32;4.00;99.90
40960;DHT22;27842;52.272;8.052;2023-03-07T14:56:59;4.00;99.90
40960;DHT22;27842;52.272;8.052;2023-03-07T14:59:25;4.00;99.90
40960;DHT22;27842;52.272;8.052;2023-03-07T15:01:50;4.10;99.90
40960;DHT22;27842;52.272;8.052;2023-03-07T15:06:55;4.00;99.90
40960;DHT22;27842;52.272;8.052;2023-03-07T15:09:22;4.00;99.90
40960;DHT22;27842;52.272;8.052;2023-03-07T15:12:06;4.00;99.90
40960;DHT22;27842;52.272;8.052;2023-03-07T15:14:50;4.00;99.90
40960;DHT22;27842;52.272;8.052;2023-03-07T15:17:17;4.00;99.90
40960;DHT22;27842;52.272;8.052;2023-03-07T15:19:49;4.00;99.90
40960;DHT22;27842;52.272;8.052;2023-03-07T15:22:30;3.90;99.90
40960;DHT22;27842;52.272;8.052;2023-03-07T15:24:57;3.80;99.90
40960;DHT22;27842;52.272;8.052;2023-03-07T15:27:24;3.70;99.90
40960;DHT22;27842;52.272;8.052;2023-03-07T15:29:51;3.60;99.90
40960;DHT22;27842;52.272;8.052;2023-03-07T15:32:30;3.50;99.90
40960;DHT22;27842;52.272;8.052;2023-03-07T15:35:29;3.50;99.90
40960;DHT22;27842;52.272;8.052;2023-03-07T15:40:25;3.40;99.90
40960;DHT22;27842;52.272;8.052;2023-03-07T15:42:56;3.40;99.90
40960;DHT22;27842;52.272;8.052;2023-03-07T15:48:01;3.30;99.90
40960;DHT22;27842;52.272;8.052;2023-03-07T15:50:27;3.30;99.90
40960;DHT22;27842;52.272;8.052;2023-03-07T15:52:59;3.30;99.90
40960;DHT22;27842;52.272;8.052;2023-03-07T15:55:26;3.30;99.90
40960;DHT22;27842;52.272;8.052;2023-03-07T15:58:02;3.20;99.90
40960;DHT22;27842;52.272;8.052;2023-03-07T16:00:35;3.20;99.90
40960;DHT22;27842;52.272;8.052;2023-03-07T16:03:23;3.20;99.90
40960;DHT22;27842;52.272;8.052;2023-03-07T16:05:49;3.10;99.90
40960;DHT22;27842;52.272;8.052;2023-03-07T16:08:16;3.20;99.90
40960;DHT22;27842;52.272;8.052;2023-03-07T16:11:03;3.10;99.90
40960;DHT22;27842;52.272;8.052;2023-03-07T16:13:39;3.10;99.90
40960;DHT22;27842;52.272;8.052;2023-03-07T16:16:16;3.10;99.90
40960;DHT22;27842;52.272;8.052;2023-03-07T16:18:44;3.00;99.90
40960;DHT22;27842;52.272;8.052;2023-03-07T16:21:14;3.00;99.90
40960;DHT22;27842;52.272;8.052;2023-03-07T16:23:40;2.90;99.90
40960;DHT22;27842;52.272;8.052;2023-03-07T16:26:06;2.90;99.90
40960;DHT22;27842;52.272;8.052;2023-03-07T16:28:33;2.80;99.90
40960;DHT22;27842;52.272;8.052;2023-03-07T16:30:58;2.80;99.90
40960;DHT22;27842;52.272;8.052;2023-03-07T16:33:24;2.80;99.90
40960;DHT22;27842;52.272;8.052;2023-03-07T16:35:50;2.80;99.90
40960;DHT22;27842;52.272;8.052;2023-03-07T16:38:15;2.80;99.90
40960;DHT22;27842;52.272;8.052;2023-03-07T16:40:43;2.80;99.90
40960;DHT22;27842;52.272;8.052;2023-03-07T16:43:31;2.80;99.90
40960;DHT22;27842;52.272;8.052;2023-03-07T16:46:02;2.80;99.90
40960;DHT22;27842;52.272;8.052;2023-03-07T16:48:28;2.80;99.90
40960;DHT22;27842;52.272;8.052;2023-03-07T16:50:54;2.80;99.90
40960;DHT22;27842;52.272;8.052;2023-03-07T16:53:20;2.80;99.90
40960;DHT22;27842;52.272;8.052;2023-03-07T16:55:46;2.70;99.90
40960;DHT22;27842;52.272;8.052;2023-03-07T16:58:20;2.70;99.90
40960;DHT22;27842;52.272;8.052;2023-03-07T17:00:46;2.80;99.90
40960;DHT22;27842;52.272;8.052;2023-03-07T17:03:12;2.80;99.90
40960;DHT22;27842;52.272;8.052;2023-03-07T17:05:37;2.70;99.90
40960;DHT22;27842;52.272;8.052;2023-03-07T17:08:03;2.80;99.90
40960;DHT22;27842;52.272;8.052;2023-03-07T17:10:29;2.70;99.90
40960;DHT22;27842;52.272;8.052;2023-03-07T17:12:59;2.70;99.90
40960;DHT22;27842;52.272;8.052;2023-03-07T17:15:25;2.70;99.90
40960;DHT22;27842;52.272;8.052;2023-03-07T17:17:55;2.80;99.90
40960;DHT22;27842;52.272;8.052;2023-03-07T17:20:21;2.80;99.90
40960;DHT22;27842;52.272;8.052;2023-03-07T17:22:48;2.80;99.90
40960;DHT22;27842;52.272;8.052;2023-03-07T17:25:15;2.80;99.90
40960;DHT22;27842;52.272;8.052;2023-03-07T17:27:47;2.80;99.90
40960;DHT22;27842;52.272;8.052;2023-03-07T17:30:22;2.80;99.90
40960;DHT22;27842;52.272;8.052;2023-03-07T17:32:48;2.80;99.90
40960;DHT22;27842;52.272;8.052;2023-03-07T17:35:14;2.70;99.90
40960;DHT22;27842;52.272;8.052;2023-03-07T17:37:40;2.70;99.90
40960;DHT22;27842;52.272;8.052;2023-03-07T17:40:07;2.80;99.90
40960;DHT22;27842;52.272;8.052;2023-03-07T17:42:38;2.80;99.90
40960;DHT22;27842;52.272;8.052;2023-03-07T17:45:05;2.80;99.90
40960;DHT22;27842;52.272;8.052;2023-03-07T17:47:31;2.80;99.90
40960;DHT22;27842;52.272;8.052;2023-03-07T17:49:58;2.80;99.90
40960;DHT22;27842;52.272;8.052;2023-03-07T17:52:24;2.80;99.90
40960;DHT22;27842;52.272;8.052;2023-03-07T17:54:50;2.80;99.90
40960;DHT22;27842;52.272;8.052;2023-03-07T17:57:16;2.80;99.90
40960;DHT22;27842;52.272;8.052;2023-03-07T17:59:41;2.80;99.90
40960;DHT22;27842;52.272;8.052;2023-03-07T18:02:10;2.80;99.90
40960;DHT22;27842;52.272;8.052;2023-03-07T18:04:36;2.80;99.90
40960;DHT22;27842;52.272;8.052;2023-03-07T18:07:03;2.80;99.90